Time;durP1;ratioP1;P1;durP2;ratioP2;P2;SDS_P1;SDS_P2;PMS_P1;PMS_P2;Temp;Humidity;BMP_temperature;BMP_pressure;BME280_temperature;BME280_humidity;BME280_pressure;Samples;Min_cycle;Max_cycle;Signal;HPM_P1;HPM_P2
2022/09/18 00:01:26;;;;;;;7.10;1.65;;;;;;;16.09;100.00;93692.69;5100382;27;20028;-82
2022/09/18 00:03:58;;;;;;;4.90;1.38;;;;;;;16.24;100.00;93708.16;5085630;28;20051;-82
2022/09/18 00:06:28;;;;;;;2.83;1.55;;;;;;;16.21;100.00;93706.13;5105565;27;20092;-82
2022/09/18 00:08:58;;;;;;;2.22;1.48;;;;;;;16.24;100.00;93695.03;5082747;28;20047;-82
2022/09/18 00:11:28;;;;;;;6.47;1.98;;;;;;;16.17;100.00;93694.66;5114660;27;20043;-81
2022/09/18 00:13:56;;;;;;;3.88;1.83;;;;;;;16.28;100.00;93694.44;5087407;27;20052;-82
2022/09/18 00:16:24;;;;;;;2.47;1.52;;;;;;;16.24;100.00;93710.78;5083938;27;20115;-82
2022/09/18 00:18:52;;;;;;;8.23;1.42;;;;;;;16.22;100.00;93715.56;5104608;27;20074;-82
2022/09/18 00:21:24;;;;;;;11.82;1.90;;;;;;;16.15;100.00;93691.53;5102521;27;20051;-83
2022/09/18 00:23:57;;;;;;;2.75;1.30;;;;;;;16.01;100.00;93709.94;5069038;28;21051;-82
2022/09/18 00:26:25;;;;;;;12.52;2.60;;;;;;;15.91;100.00;93709.34;5087039;27;20065;-81
2022/09/18 00:28:57;;;;;;;3.85;2.33;;;;;;;15.48;100.00;93692.75;5064588;28;20144;-81
2022/09/18 00:31:28;;;;;;;8.88;2.70;;;;;;;15.51;100.00;93693.22;5087347;28;20051;-82
2022/09/18 00:33:58;;;;;;;2.50;1.95;;;;;;;15.20;100.00;93714.72;5083136;28;20063;-83
2022/09/18 00:36:25;;;;;;;9.25;2.75;;;;;;;15.06;100.00;93715.44;5066755;27;20043;-82
2022/09/18 00:38:54;;;;;;;3.05;2.40;;;;;;;14.96;100.00;93725.31;5081853;28;20039;-81
2022/09/18 00:41:27;;;;;;;5.75;2.22;;;;;;;14.84;100.00;93733.59;5086348;27;20061;-81
2022/09/18 00:44:32;;;;;;;5.27;2.17;;;;;;;14.73;100.00;93738.22;5103938;27;20046;-82
2022/09/18 00:47:13;;;;;;;13.77;2.28;;;;;;;14.62;100.00;93739.38;5094985;27;20027;-82
2022/09/18 00:49:57;;;;;;;2.70;1.88;;;;;;;14.59;100.00;93764.31;5099946;27;20127;-82
2022/09/18 00:52:26;;;;;;;;;;;;;;;14.56;100.00;93790.28;5084404;27;20066;-81
2022/09/18 00:55:07;;;;;;;2.92;1.98;;;;;;;14.44;100.00;93778.38;5097667;27;19935;-81
2022/09/18 00:57:40;;;;;;;2.05;1.35;;;;;;;14.41;100.00;93767.66;5085535;28;20055;-81
2022/09/18 01:00:11;;;;;;;5.03;1.40;;;;;;;14.33;100.00;93796.03;5085163;27;20046;-80
2022/09/18 01:02:40;;;;;;;2.72;1.58;;;;;;;14.27;100.00;93817.31;5090586;28;20055;-82
2022/09/18 01:05:08;;;;;;;1.92;1.60;;;;;;;14.20;100.00;93846.44;5106574;27;20044;-80
2022/09/18 01:07:59;;;;;;;2.20;1.65;;;;;;;14.13;100.00;93866.94;5093655;27;20181;-82
2022/09/18 01:10:34;;;;;;;4.03;1.60;;;;;;;14.01;100.00;93869.13;5076406;28;20052;-82
2022/09/18 01:13:19;;;;;;;4.03;1.30;;;;;;;13.95;100.00;93882.31;5103880;27;20046;-82
2022/09/18 01:15:58;;;;;;;6.38;1.80;;;;;;;13.84;100.00;93886.03;5084427;27;20043;-82
2022/09/18 01:18:50;;;;;;;5.00;1.85;;;;;;;13.48;100.00;93877.66;5112147;27;20126;-81
2022/09/18 01:21:34;;;;;;;3.00;1.10;;;;;;;13.37;100.00;93908.34;5086365;28;20040;-80
2022/09/18 01:24:46;;;;;;;1.95;1.20;;;;;;;13.06;100.00;93937.22;5111296;27;20128;-80
2022/09/18 01:27:29;;;;;;;1.40;1.20;;;;;;;12.75;100.00;93924.25;5087026;27;20524;-82
2022/09/18 01:30:03;;;;;;;1.38;1.10;;;;;;;12.46;100.00;93931.09;5088107;28;20063;-81
2022/09/18 01:32:40;;;;;;;2.00;1.20;;;;;;;12.24;100.00;93913.91;5076512;27;20619;-81
2022/09/18 01:35:16;;;;;;;1.30;1.10;;;;;;;11.90;100.00;93922.25;5075002;28;20142;-80
2022/09/18 01:38:12;;;;;;;3.15;0.82;;;;;;;11.40;100.00;93942.03;5097232;28;20039;-81
2022/09/18 01:40:55;;;;;;;2.00;0.93;;;;;;;11.20;100.00;93964.38;5100919;27;20054;-79
2022/09/18 01:43:27;;;;;;;2.38;0.60;;;;;;;11.00;100.00;93974.69;5091206;28;20051;-79
2022/09/18 01:45:59;;;;;;;0.70;0.60;;;;;;;10.75;100.00;93968.34;5092991;27;20130;-80
2022/09/18 01:48:35;;;;;;;0.80;0.60;;;;;;;10.68;100.00;93967.78;5073956;28;20043;-79
2022/09/18 01:51:19;;;;;;;1.10;0.70;;;;;;;10.66;100.00;94001.09;5060099;28;21258;-80
2022/09/18 01:53:52;;;;;;;1.13;0.60;;;;;;;10.56;100.00;94032.28;5088686;28;20461;-80
2022/09/18 01:56:34;;;;;;;0.77;0.50;;;;;;;10.33;100.00;93997.75;5090547;28;20036;-80
2022/09/18 01:59:10;;;;;;;0.50;0.30;;;;;;;10.25;100.00;94021.63;5072164;28;20115;-81
2022/09/18 02:01:48;;;;;;;0.95;0.55;;;;;;;10.07;100.00;94039.16;5081508;28;20135;-80
2022/09/18 02:04:20;;;;;;;0.63;0.50;;;;;;;9.98;100.00;94058.84;5071588;28;20044;-81
2022/09/18 02:06:59;;;;;;;1.02;0.85;;;;;;;9.87;100.00;94067.59;5042566;28;20052;-80
2022/09/18 02:09:27;;;;;;;0.63;0.40;;;;;;;9.69;100.00;94061.66;5057346;28;20047;-80
2022/09/18 02:11:57;;;;;;;0.70;0.57;;;;;;;9.72;100.00;94075.97;5061189;28;20040;-80
2022/09/18 02:14:40;;;;;;;0.40;0.30;;;;;;;9.66;100.00;94077.75;5057873;28;20074;-81
2022/09/18 02:17:35;;;;;;;1.98;0.43;;;;;;;9.63;100.00;94083.41;5044703;28;20071;-80
2022/09/18 02:20:09;;;;;;;0.40;0.40;;;;;;;9.42;100.00;94102.41;5042363;28;20056;-81
2022/09/18 02:22:37;;;;;;;2.05;0.40;;;;;;;9.44;100.00;94121.16;5052010;28;20058;-80
2022/09/18 02:25:07;;;;;;;1.63;0.75;;;;;;;9.46;100.00;94119.09;5068373;28;20122;-80
2022/09/18 02:27:36;;;;;;;2.92;1.20;;;;;;;9.35;100.00;94144.97;5068234;28;20078;-81
2022/09/18 02:30:05;;;;;;;0.40;0.40;;;;;;;9.36;100.00;94115.34;5068574;28;20085;-81
2022/09/18 02:32:39;;;;;;;2.88;0.63;;;;;;;9.33;100.00;94141.81;5058138;28;20114;-81
2022/09/18 02:35:08;;;;;;;0.40;0.30;;;;;;;9.37;100.00;94161.09;5055721;28;20032;-81
2022/09/18 02:37:53;;;;;;;0.50;0.40;;;;;;;9.38;100.00;94170.47;5044852;28;20068;-80
2022/09/18 02:40:33;;;;;;;1.30;0.50;;;;;;;9.40;100.00;94172.03;5043432;28;20051;-80
2022/09/18 02:43:39;;;;;;;0.73;0.50;;;;;;;9.38;100.00;94175.69;5059864;28;20129;-80
2022/09/18 02:46:37;;;;;;;1.05;0.73;;;;;;;9.40;100.00;94198.03;5045599;28;20049;-80
2022/09/18 02:49:23;;;;;;;0.90;0.60;;;;;;;9.42;100.00;94203.75;5066427;28;20048;-80
2022/09/18 02:51:56;;;;;;;0.80;0.68;;;;;;;9.38;100.00;94206.88;5061125;28;20087;-81
2022/09/18 02:54:45;;;;;;;0.77;0.77;;;;;;;9.40;100.00;94214.44;5065075;28;20731;-80
2022/09/18 02:57:25;;;;;;;1.02;0.75;;;;;;;9.22;100.00;94206.84;5061307;28;20048;-80
2022/09/18 02:59:58;;;;;;;1.02;0.75;;;;;;;9.27;100.00;94231.09;5068232;28;20052;-80
2022/09/18 03:02:25;;;;;;;1.02;0.88;;;;;;;9.30;100.00;94225.44;5046159;28;21488;-81
2022/09/18 03:04:53;;;;;;;1.30;1.00;;;;;;;9.12;100.00;94215.28;5067011;28;20044;-81
2022/09/18 03:07:37;;;;;;;1.10;0.60;;;;;;;9.14;100.00;94231.44;5065891;28;20047;-81
2022/09/18 03:10:06;;;;;;;3.60;1.00;;;;;;;9.23;100.00;94239.63;5049785;28;20145;-81
2022/09/18 03:12:34;;;;;;;1.02;0.93;;;;;;;9.13;100.00;94245.47;5063361;28;20407;-81
2022/09/18 03:15:03;;;;;;;1.10;1.00;;;;;;;8.95;100.00;94223.88;5033411;28;20593;-81
2022/09/18 03:17:30;;;;;;;1.05;0.95;;;;;;;9.04;100.00;94246.84;5065201;28;20070;-81
2022/09/18 03:19:57;;;;;;;1.55;1.10;;;;;;;9.03;100.00;94255.69;5063592;28;20044;-82
2022/09/18 03:22:24;;;;;;;1.17;1.08;;;;;;;9.02;100.00;94260.09;5060815;28;20041;-81
2022/09/18 03:24:51;;;;;;;1.00;0.80;;;;;;;8.98;100.00;94269.34;5067471;28;20078;-81
2022/09/18 03:27:19;;;;;;;1.50;1.27;;;;;;;8.90;100.00;94252.34;5048590;28;20487;-81
2022/09/18 03:29:48;;;;;;;3.38;1.02;;;;;;;8.98;100.00;94277.97;5062879;28;20044;-81
2022/09/18 03:32:17;;;;;;;1.60;1.00;;;;;;;8.80;100.00;94273.75;5042103;28;20110;-80
2022/09/18 03:34:47;;;;;;;1.42;1.13;;;;;;;8.82;100.00;94264.94;5059848;28;20053;-81
2022/09/18 03:37:15;;;;;;;2.65;1.02;;;;;;;8.80;100.00;94260.78;5061225;28;20131;-81
2022/09/18 03:39:43;;;;;;;1.10;0.90;;;;;;;8.89;100.00;94297.50;5058961;28;20056;-81
2022/09/18 03:42:12;;;;;;;1.65;1.20;;;;;;;8.71;100.00;94269.16;5064758;28;20044;-81
2022/09/18 03:44:39;;;;;;;3.10;1.33;;;;;;;8.78;100.00;94272.41;5062336;28;20052;-81
2022/09/18 03:47:16;;;;;;;1.52;1.10;;;;;;;8.53;100.00;94260.53;5053034;28;20273;-80
2022/09/18 03:49:45;;;;;;;1.85;1.20;;;;;;;8.54;100.00;94248.34;5061153;28;20179;-82
2022/09/18 03:52:13;;;;;;;1.85;1.45;;;;;;;8.50;100.00;94268.78;5045589;28;20053;-80
2022/09/18 03:54:51;;;;;;;2.28;1.83;;;;;;;8.56;100.00;94257.47;5059846;28;20052;-81
2022/09/18 03:57:38;;;;;;;2.97;1.98;;;;;;;8.33;100.00;94253.13;5061353;28;20048;-81
2022/09/18 04:00:32;;;;;;;1.83;1.50;;;;;;;8.37;100.00;94300.16;5060014;28;20123;-81
2022/09/18 04:03:05;;;;;;;3.78;2.05;;;;;;;8.33;100.00;94296.44;5060745;28;20536;-81
2022/09/18 04:05:50;;;;;;;1.75;1.25;;;;;;;8.28;100.00;94310.09;5057078;28;20083;-81
2022/09/18 04:08:44;;;;;;;3.50;2.42;;;;;;;8.19;100.00;94314.88;5052843;28;20063;-81
2022/09/18 04:11:22;;;;;;;2.25;1.80;;;;;;;8.24;100.00;94322.72;5042182;28;20047;-81
2022/09/18 04:13:49;;;;;;;2.53;1.90;;;;;;;8.31;100.00;94342.59;5059932;28;20111;-82
2022/09/18 04:16:16;;;;;;;2.25;1.58;;;;;;;8.13;100.00;94315.75;5039935;28;20049;-81
2022/09/18 04:18:43;;;;;;;3.03;2.20;;;;;;;8.26;100.00;94339.88;5055745;28;20040;-80
2022/09/18 04:21:10;;;;;;;2.47;1.98;;;;;;;8.32;100.00;94333.78;5036324;28;20044;-81
2022/09/18 04:23:37;;;;;;;2.25;1.90;;;;;;;8.21;100.00;94307.66;5086619;28;20122;-80
2022/09/18 04:26:08;;;;;;;3.53;2.05;;;;;;;8.29;100.00;94360.19;5059493;28;20048;-80
2022/09/18 04:28:40;;;;;;;3.35;2.67;;;;;;;8.24;100.00;94353.88;5057813;28;20044;-81
2022/09/18 04:31:10;;;;;;;2.65;2.00;;;;;;;8.35;100.00;94380.03;5059340;28;20045;-81
2022/09/18 04:33:37;;;;;;;4.32;1.95;;;;;;;8.41;100.00;94394.72;5063197;28;21294;-83
2022/09/18 04:36:07;;;;;;;4.00;2.83;;;;;;;8.42;100.00;94404.09;5063366;28;20063;-81
2022/09/18 04:38:36;;;;;;;3.13;2.25;;;;;;;8.49;100.00;94402.16;5070832;28;20048;-80
2022/09/18 04:41:04;;;;;;;2.65;2.05;;;;;;;8.47;100.00;94388.63;5045267;28;20040;-80
2022/09/18 04:43:31;;;;;;;4.07;2.30;;;;;;;8.58;100.00;94420.78;5058660;28;20098;-81
2022/09/18 04:45:58;;;;;;;4.15;3.13;;;;;;;8.58;100.00;94431.94;5061964;28;20045;-81
2022/09/18 04:48:26;;;;;;;3.17;2.25;;;;;;;8.63;100.00;94438.28;5058533;28;20037;-81
2022/09/18 04:50:54;;;;;;;3.38;2.80;;;;;;;8.59;100.00;94433.53;5058695;28;20045;-81
2022/09/18 04:53:21;;;;;;;3.78;2.72;;;;;;;8.59;100.00;94438.72;5057657;28;20044;-81
2022/09/18 04:55:48;;;;;;;3.42;2.58;;;;;;;8.42;100.00;94417.84;5044296;28;20733;-81
2022/09/18 04:58:17;;;;;;;3.60;2.97;;;;;;;8.52;100.00;94427.66;5058391;28;20710;-81
2022/09/18 05:00:49;;;;;;;4.47;3.05;;;;;;;8.52;100.00;94452.84;5043144;28;20117;-81
2022/09/18 05:03:18;;;;;;;2.88;2.22;;;;;;;8.29;100.00;94432.84;5065898;28;20117;-81
2022/09/18 05:05:48;;;;;;;9.15;3.35;;;;;;;8.35;100.00;94437.13;5064474;28;20070;-81
2022/09/18 05:08:16;;;;;;;4.93;2.55;;;;;;;8.48;100.00;94462.88;5045488;28;20036;-82
2022/09/18 05:10:43;;;;;;;5.68;3.90;;;;;;;8.33;100.00;94441.75;5064236;28;20048;-81
2022/09/18 05:13:10;;;;;;;4.38;3.58;;;;;;;8.44;100.00;94497.28;5057853;28;20048;-81
2022/09/18 05:15:45;;;;;;;3.50;3.15;;;;;;;8.45;100.00;94478.91;5074981;28;20044;-81
2022/09/18 05:18:13;;;;;;;2.75;2.38;;;;;;;8.50;100.00;94481.63;5077515;28;20101;-81
2022/09/18 05:20:40;;;;;;;4.53;3.33;;;;;;;8.44;100.00;94487.69;5071627;28;20048;-82
2022/09/18 05:23:09;;;;;;;4.90;3.63;;;;;;;8.52;100.00;94494.38;5078041;28;20055;-81
2022/09/18 05:25:36;;;;;;;5.85;3.60;;;;;;;8.52;100.00;94489.97;5053948;28;20044;-81
2022/09/18 05:28:04;;;;;;;4.97;3.60;;;;;;;8.48;100.00;94499.22;5052651;28;20047;-81
2022/09/18 05:30:38;;;;;;;;;;;;;;;8.52;100.00;94505.53;5053164;28;20036;-81
2022/09/18 05:33:09;;;;;;;5.18;3.90;;;;;;;8.39;100.00;94495.31;5068568;28;20033;-82
2022/09/18 05:35:39;;;;;;;5.78;3.67;;;;;;;8.46;100.00;94526.41;5056302;28;20048;-82
2022/09/18 05:38:06;;;;;;;5.30;4.03;;;;;;;8.47;100.00;94522.81;5069646;28;20040;-82
2022/09/18 05:40:36;;;;;;;4.90;2.97;;;;;;;8.43;100.00;94522.47;5052542;28;20047;-81
2022/09/18 05:43:04;;;;;;;5.25;3.47;;;;;;;8.52;100.00;94525.53;5070779;28;20040;-81
2022/09/18 05:45:33;;;;;;;5.15;3.83;;;;;;;8.51;100.00;94519.50;5072111;28;20028;-82
2022/09/18 05:48:04;;;;;;;4.63;3.30;;;;;;;8.48;100.00;94507.00;5064109;28;20044;-82
2022/09/18 05:50:35;;;;;;;6.40;4.00;;;;;;;8.40;100.00;94494.31;5048498;28;20032;-80
2022/09/18 05:53:07;;;;;;;6.45;4.22;;;;;;;8.54;100.00;94534.66;5044412;28;20060;-83
2022/09/18 05:55:58;;;;;;;6.95;4.07;;;;;;;8.55;100.00;94548.41;5082885;28;20645;-82
2022/09/18 05:58:28;;;;;;;5.32;3.67;;;;;;;8.60;100.00;94527.75;5063231;28;20051;-82
2022/09/18 06:00:57;;;;;;;5.85;3.88;;;;;;;8.57;100.00;94529.00;5072326;28;20072;-82
2022/09/18 06:03:31;;;;;;;7.10;3.70;;;;;;;8.54;100.00;94526.88;5080152;28;20767;-83
2022/09/18 06:06:02;;;;;;;4.00;3.03;;;;;;;8.56;100.00;94532.63;5066385;28;20732;-82
2022/09/18 06:08:29;;;;;;;5.75;4.07;;;;;;;8.80;100.00;94541.22;5065978;28;20047;-82
2022/09/18 06:11:00;;;;;;;4.95;3.85;;;;;;;8.73;100.00;94532.75;5102301;27;20529;-81
2022/09/18 06:13:30;;;;;;;5.77;3.27;;;;;;;8.67;100.00;94532.84;5082084;28;20073;-83
2022/09/18 06:16:00;;;;;;;4.35;3.08;;;;;;;8.82;100.00;94540.97;5083305;28;20036;-83
2022/09/18 06:18:46;;;;;;;2.67;2.22;;;;;;;8.76;100.00;94521.09;5089392;28;20605;-83
2022/09/18 06:21:14;;;;;;;7.45;2.72;;;;;;;8.89;100.00;94557.22;5088001;28;20066;-82
2022/09/18 06:23:42;;;;;;;4.68;3.13;;;;;;;8.90;100.00;94543.22;5045665;28;20135;-82
2022/09/18 06:26:16;;;;;;;4.18;2.65;;;;;;;8.96;100.00;94563.09;5076491;28;20513;-82
2022/09/18 06:28:50;;;;;;;4.10;3.05;;;;;;;8.93;100.00;94558.38;5080593;28;20050;-82
2022/09/18 06:31:18;;;;;;;3.78;2.63;;;;;;;9.04;100.00;94579.34;5076453;28;20048;-71
2022/09/18 06:34:03;;;;;;;4.85;3.20;;;;;;;9.02;100.00;94560.59;5069076;28;20079;-77
2022/09/18 06:36:30;;;;;;;4.45;3.30;;;;;;;9.04;100.00;94579.34;5070830;28;20059;-73
2022/09/18 06:39:04;;;;;;;10.88;4.85;;;;;;;9.07;100.00;94610.09;5075887;28;20044;-75
2022/09/18 06:41:31;;;;;;;3.38;2.28;;;;;;;9.04;100.00;94594.94;5074036;28;20040;-76
2022/09/18 06:44:02;;;;;;;2.60;1.88;;;;;;;9.01;100.00;94590.22;5073718;28;20044;-74
2022/09/18 06:46:31;;;;;;;3.13;2.60;;;;;;;9.16;100.00;94600.91;5072978;28;20044;-75
2022/09/18 06:49:11;;;;;;;3.33;2.78;;;;;;;9.28;100.00;94606.91;5078068;28;20043;-75
2022/09/18 06:51:44;;;;;;;4.25;2.83;;;;;;;9.48;100.00;94616.16;5055908;28;20913;-74
2022/09/18 06:54:16;;;;;;;2.67;2.00;;;;;;;9.55;100.00;94607.19;5059593;28;20044;-74
2022/09/18 06:56:44;;;;;;;3.45;2.40;;;;;;;9.72;100.00;94617.69;5072143;28;20056;-74
2022/09/18 06:59:15;;;;;;;2.67;1.88;;;;;;;9.71;100.00;94610.91;5085821;28;20052;-74
2022/09/18 07:01:42;;;;;;;2.00;1.58;;;;;;;9.75;100.00;94601.59;5073666;28;20083;-74
2022/09/18 07:04:15;;;;;;;2.40;2.00;;;;;;;9.87;100.00;94619.00;5075999;28;20527;-74
2022/09/18 07:06:46;;;;;;;3.70;1.50;;;;;;;9.84;100.00;94629.88;5077689;28;20047;-74
2022/09/18 07:09:14;;;;;;;2.30;1.40;;;;;;;9.94;100.00;94619.66;5103280;27;20048;-74
2022/09/18 07:12:02;;;;;;;2.35;1.15;;;;;;;10.00;100.00;94626.53;5074016;28;20063;-74
2022/09/18 07:14:50;;;;;;;3.42;1.45;;;;;;;9.96;100.00;94633.22;5076793;28;20240;-73
2022/09/18 07:17:18;;;;;;;6.00;1.10;;;;;;;10.04;100.00;94634.66;5072878;28;20055;-73
2022/09/18 07:19:54;;;;;;;3.25;1.10;;;;;;;10.09;100.00;94643.34;5076791;28;20813;-74
2022/09/18 07:22:28;;;;;;;4.72;1.10;;;;;;;9.99;100.00;94627.53;5067463;28;20134;-74
2022/09/18 07:24:55;;;;;;;2.08;1.60;;;;;;;9.99;100.00;94631.97;5059201;28;20045;-74
2022/09/18 07:27:22;;;;;;;2.10;1.73;;;;;;;10.02;100.00;94629.69;5063344;28;20068;-75
2022/09/18 07:29:49;;;;;;;1.30;1.00;;;;;;;10.04;100.00;94625.03;5110437;27;20055;-72
2022/09/18 07:32:21;;;;;;;1.90;1.50;;;;;;;10.01;100.00;94615.13;5076992;28;20461;-70
2022/09/18 07:34:48;;;;;;;2.35;1.92;;;;;;;10.21;100.00;94624.28;5073188;28;20052;-67
2022/09/18 07:37:22;;;;;;;7.85;2.47;;;;;;;10.38;100.00;94619.94;5074338;28;20133;-68
2022/09/18 07:40:02;;;;;;;2.63;1.55;;;;;;;10.42;100.00;94625.47;5075742;28;20071;-68
2022/09/18 07:42:48;;;;;;;4.85;1.67;;;;;;;10.58;100.00;94629.13;5089583;28;20860;-67
2022/09/18 07:45:15;;;;;;;1.83;1.20;;;;;;;10.66;100.00;94615.72;5081112;28;20060;-67
2022/09/18 07:47:42;;;;;;;2.55;1.80;;;;;;;10.81;100.00;94628.97;5077394;28;20044;-68
2022/09/18 07:50:14;;;;;;;2.60;2.00;;;;;;;10.97;100.00;94637.06;5078056;28;20137;-72
2022/09/18 07:52:54;;;;;;;3.50;1.90;;;;;;;11.10;100.00;94631.50;5079167;28;20044;-72
2022/09/18 07:55:27;;;;;;;2.63;2.00;;;;;;;11.08;100.00;94628.34;5079113;28;20536;-67
2022/09/18 07:57:59;;;;;;;6.30;1.55;;;;;;;10.92;100.00;94614.28;5082633;28;20032;-74
2022/09/18 08:00:59;;;;;;;1.48;0.90;;;;;;;11.32;100.00;94638.59;5063971;28;20048;-70
2022/09/18 08:03:26;;;;;;;2.15;1.25;;;;;;;11.42;100.00;94628.31;5078785;28;20079;-68
2022/09/18 08:06:16;;;;;;;1.45;1.10;;;;;;;11.89;100.00;94635.66;5079040;28;20050;-67
2022/09/18 08:09:03;;;;;;;2.10;1.05;;;;;;;12.17;97.47;94644.34;5078304;28;20051;-67
2022/09/18 08:11:52;;;;;;;1.80;1.15;;;;;;;11.81;97.18;94641.28;5078047;28;20414;-68
2022/09/18 08:14:28;;;;;;;3.15;1.05;;;;;;;11.99;99.72;94648.88;5089972;28;20051;-69
2022/09/18 08:17:14;;;;;;;1.33;0.95;;;;;;;11.86;98.15;94643.97;5076427;28;20533;-67
2022/09/18 08:19:59;;;;;;;1.17;0.90;;;;;;;12.05;100.00;94658.31;5075901;28;20141;-67
2022/09/18 08:22:43;;;;;;;8.68;1.05;;;;;;;11.90;98.32;94645.09;5077758;28;20152;-67
2022/09/18 08:25:11;;;;;;;1.27;0.88;;;;;;;12.10;100.00;94662.00;5077573;28;20040;-67
2022/09/18 08:27:41;;;;;;;1.83;1.15;;;;;;;12.32;98.92;94654.97;5075107;28;20647;-68
2022/09/18 08:30:10;;;;;;;3.85;1.15;;;;;;;12.28;98.64;94651.28;5080495;28;20047;-68
2022/09/18 08:32:38;;;;;;;1.50;1.08;;;;;;;12.01;98.24;94646.78;5076912;28;20051;-68
2022/09/18 08:35:08;;;;;;;1.55;1.30;;;;;;;12.09;97.68;94683.94;5074308;28;20047;-67
2022/09/18 08:37:35;;;;;;;1.40;0.80;;;;;;;12.07;98.71;94670.34;5077205;28;21009;-68
2022/09/18 08:40:29;;;;;;;3.45;1.23;;;;;;;11.80;97.16;94671.03;5078735;28;20122;-67
2022/09/18 08:43:16;;;;;;;2.80;1.40;;;;;;;11.75;98.83;94670.97;5078088;28;20700;-69
2022/09/18 08:45:59;;;;;;;2.63;1.55;;;;;;;11.66;99.23;94660.94;5079075;28;20052;-68
2022/09/18 08:48:34;;;;;;;3.72;1.27;;;;;;;11.58;99.99;94669.19;5072941;28;20747;-69
2022/09/18 08:51:24;;;;;;;2.53;1.35;;;;;;;11.87;100.00;94666.44;5061633;28;20040;-70
2022/09/18 08:54:00;;;;;;;3.03;1.52;;;;;;;12.03;98.50;94683.88;5059407;28;20556;-68
2022/09/18 08:56:46;;;;;;;4.35;1.67;;;;;;;11.84;99.40;94656.47;5079683;28;21155;-68
2022/09/18 09:00:13;;;;;;;2.00;1.38;;;;;;;12.18;98.32;94672.81;5073365;28;20032;-68
2022/09/18 09:03:06;;;;;;;3.78;1.30;;;;;;;12.47;96.42;94690.09;5066528;28;20109;-68
2022/09/18 09:05:44;;;;;;;2.25;1.55;;;;;;;12.47;96.73;94664.75;5057216;28;20719;-80
2022/09/18 09:08:50;;;;;;;1.88;1.35;;;;;;;12.32;95.13;94668.00;5046587;28;20055;-79
2022/09/18 09:11:38;;;;;;;1.30;1.20;;;;;;;12.33;95.71;94674.78;5055736;28;20044;-69
2022/09/18 09:14:30;;;;;;;2.47;1.35;;;;;;;12.54;93.78;94659.34;5050007;28;20133;-78
2022/09/18 09:17:28;;;;;;;1.80;0.80;;;;;;;12.71;94.06;94670.50;5041378;28;20117;-79
2022/09/18 09:20:22;;;;;;;3.55;1.23;;;;;;;12.82;92.06;94677.38;5061859;28;20865;-79
2022/09/18 09:23:13;;;;;;;2.00;1.40;;;;;;;12.75;93.91;94702.94;5051151;28;20760;-78
2022/09/18 09:25:58;;;;;;;4.97;1.52;;;;;;;12.71;93.29;94680.13;5054988;28;20135;-78
2022/09/18 09:29:05;;;;;;;2.17;1.10;;;;;;;12.55;94.40;94660.91;5060312;28;20055;-77
2022/09/18 09:31:58;;;;;;;3.20;2.33;;;;;;;12.91;93.03;94666.47;5053021;28;20056;-78
2022/09/18 09:35:16;;;;;;;3.03;2.22;;;;;;;13.31;85.32;94679.09;5046596;28;20200;-78
2022/09/18 09:38:05;;;;;;;1.95;1.20;;;;;;;13.38;77.42;94684.91;5045547;28;20044;-78
2022/09/18 09:40:41;;;;;;;2.20;1.75;;;;;;;13.75;77.95;94696.34;5056843;28;20047;-78
2022/09/18 09:43:28;;;;;;;2.00;1.50;;;;;;;13.51;75.24;94688.91;5058817;28;20040;-78
2022/09/18 09:46:01;;;;;;;4.60;1.90;;;;;;;13.52;76.05;94690.47;5057440;28;20058;-78
2022/09/18 09:48:43;;;;;;;3.25;1.88;;;;;;;13.56;76.56;94670.63;5080822;28;20612;-78
2022/09/18 09:51:31;;;;;;;2.75;1.80;;;;;;;13.41;76.19;94682.81;5044668;28;20513;-78
2022/09/18 09:54:00;;;;;;;2.50;1.73;;;;;;;13.50;75.88;94708.25;5058067;28;20052;-77
2022/09/18 09:56:35;;;;;;;2.85;1.98;;;;;;;13.52;75.16;94711.41;5059026;28;20152;-78
2022/09/18 09:59:31;;;;;;;4.75;2.63;;;;;;;13.40;74.87;94671.56;5057859;28;20037;-77
2022/09/18 10:02:20;;;;;;;6.38;3.15;;;;;;;13.50;78.03;94705.63;5058395;28;20044;-78
2022/09/18 10:05:13;;;;;;;6.22;3.33;;;;;;;13.72;77.27;94715.19;5065113;28;20654;-77
2022/09/18 10:08:10;;;;;;;5.35;3.53;;;;;;;13.60;75.70;94725.06;5065140;28;20043;-78
2022/09/18 10:10:59;;;;;;;4.75;3.40;;;;;;;13.52;75.49;94721.88;5042822;28;20036;-78
2022/09/18 10:13:30;;;;;;;5.95;3.85;;;;;;;13.46;75.56;94738.56;5059535;28;20055;-79
2022/09/18 10:16:05;;;;;;;4.63;3.55;;;;;;;13.33;74.55;94700.56;5075815;28;20044;-79
2022/09/18 10:18:38;;;;;;;4.95;3.65;;;;;;;13.46;73.94;94728.09;5065142;28;20513;-78
2022/09/18 10:21:09;;;;;;;6.40;4.38;;;;;;;13.51;74.42;94730.75;5063811;28;20044;-78
2022/09/18 10:23:39;;;;;;;5.57;3.97;;;;;;;13.72;74.15;94751.81;5046964;28;20044;-79
2022/09/18 10:26:20;;;;;;;5.20;3.70;;;;;;;13.56;74.75;94743.88;5067709;28;20040;-79
2022/09/18 10:28:47;;;;;;;8.10;4.25;;;;;;;13.85;73.21;94743.53;5067446;28;20136;-79
2022/09/18 10:31:15;;;;;;;7.05;3.97;;;;;;;14.00;74.48;94747.28;5066031;28;20131;-79
2022/09/18 10:33:50;;;;;;;4.47;3.72;;;;;;;13.63;74.06;94750.72;5065356;28;20262;-79
2022/09/18 10:36:21;;;;;;;;;;;;;;;13.82;74.21;94744.03;5066155;28;20051;-79
2022/09/18 10:38:49;;;;;;;6.63;4.63;;;;;;;13.19;73.26;94734.16;5051526;28;19920;-79
2022/09/18 10:41:37;;;;;;;6.25;4.72;;;;;;;13.14;75.59;94752.44;5050394;28;20043;-79
2022/09/18 10:44:13;;;;;;;6.80;4.60;;;;;;;13.20;77.41;94772.34;5063473;28;20052;-79
2022/09/18 10:47:01;;;;;;;6.50;5.15;;;;;;;13.28;76.17;94731.09;5062262;28;20049;-67
2022/09/18 10:49:33;;;;;;;6.82;4.82;;;;;;;13.60;74.34;94764.31;5061928;28;20746;-70
2022/09/18 10:52:19;;;;;;;4.47;3.72;;;;;;;13.49;72.75;94756.38;5088431;28;20043;-70
2022/09/18 10:55:24;;;;;;;4.55;3.45;;;;;;;13.43;73.22;94770.44;5074003;28;20124;-74
2022/09/18 10:57:55;;;;;;;4.22;3.30;;;;;;;13.69;71.84;94788.97;5005942;28;20482;-75
2022/09/18 11:00:23;;;;;;;6.10;3.55;;;;;;;13.57;71.66;94769.00;5063192;28;20044;-71
2022/09/18 11:03:00;;;;;;;5.80;4.25;;;;;;;13.84;71.54;94755.03;5068012;28;20863;-69
2022/09/18 11:05:35;;;;;;;4.57;3.80;;;;;;;14.18;68.65;94773.03;5070172;28;20141;-69
2022/09/18 11:08:13;;;;;;;6.78;3.75;;;;;;;13.91;69.58;94781.78;5061320;28;20056;-68
2022/09/18 11:10:47;;;;;;;14.88;12.90;;;;;;;13.93;68.73;94758.75;5073274;28;20124;-69
2022/09/18 11:13:22;;;;;;;4.18;3.78;;;;;;;14.15;67.40;94765.69;5049705;28;20130;-70
2022/09/18 11:15:53;;;;;;;8.25;4.35;;;;;;;14.29;65.54;94787.75;5072265;28;20040;-69
2022/09/18 11:18:23;;;;;;;4.53;3.60;;;;;;;14.19;65.40;94781.69;5070382;28;20822;-70
2022/09/18 11:20:52;;;;;;;6.63;4.63;;;;;;;14.31;67.03;94790.94;5072909;28;20048;-69
2022/09/18 11:23:33;;;;;;;6.30;4.43;;;;;;;14.48;65.72;94788.13;5064266;28;20095;-70
2022/09/18 11:26:19;;;;;;;7.70;3.88;;;;;;;14.85;64.74;94810.03;5051376;28;20579;-70
2022/09/18 11:29:01;;;;;;;4.28;3.22;;;;;;;14.48;60.77;94795.19;5065354;28;20043;-70
2022/09/18 11:31:45;;;;;;;5.10;3.53;;;;;;;14.17;62.29;94804.72;5051072;28;20060;-69
2022/09/18 11:34:30;;;;;;;4.53;4.05;;;;;;;15.01;61.37;94803.00;5061775;28;20044;-70
2022/09/18 11:37:01;;;;;;;4.07;3.22;;;;;;;14.97;57.75;94796.69;5067858;28;20411;-71
2022/09/18 11:39:37;;;;;;;4.07;3.63;;;;;;;14.99;60.09;94784.88;5059401;28;20044;-74
2022/09/18 11:42:11;;;;;;;3.60;2.55;;;;;;;15.24;58.13;94822.72;5063505;28;20164;-75
2022/09/18 11:44:41;;;;;;;4.53;3.92;;;;;;;15.40;59.46;94813.81;5061750;28;20045;-75
2022/09/18 11:47:53;;;;;;;7.72;4.45;;;;;;;15.46;56.31;94852.13;5052125;28;20540;-73
2022/09/18 11:50:25;;;;;;;2.95;2.40;;;;;;;15.29;57.77;94796.50;5019682;28;20048;-75
2022/09/18 11:52:53;;;;;;;4.55;2.47;;;;;;;15.51;56.42;94811.97;5025550;28;20068;-75
2022/09/18 11:55:43;;;;;;;3.05;2.80;;;;;;;15.66;56.88;94795.44;5040092;28;20044;-79
2022/09/18 11:58:19;;;;;;;2.42;2.20;;;;;;;15.51;56.13;94800.69;5052888;28;20059;-73
2022/09/18 12:00:47;;;;;;;;;;;;;;;15.67;55.36;94797.03;5064381;28;20044;-74
2022/09/18 12:03:19;;;;;;;4.32;2.45;;;;;;;15.35;57.24;94782.31;5068332;28;19920;-77
2022/09/18 12:06:07;;;;;;;3.28;2.53;;;;;;;15.31;56.95;94807.50;5064487;28;20045;-78
2022/09/18 12:09:03;;;;;;;4.10;2.20;;;;;;;15.74;55.44;94834.34;5066281;28;20040;-75
2022/09/18 12:11:55;;;;;;;3.15;2.38;;;;;;;15.62;55.50;94778.66;5061878;28;20050;-74
2022/09/18 12:14:37;;;;;;;5.97;2.80;;;;;;;15.70;55.15;94814.06;5070790;28;20052;-72